createdAt,value
2018-07-09T00:00:14.306Z,13.87
2018-07-09T00:02:43.441Z,13.47
2018-07-09T00:05:12.609Z,13.47
2018-07-09T00:07:41.744Z,13.00
2018-07-09T00:10:11.911Z,13.27
2018-07-09T00:12:41.043Z,12.67
2018-07-09T00:15:10.188Z,14.47
2018-07-09T00:17:39.387Z,15.40
2018-07-09T00:20:08.563Z,15.17
2018-07-09T00:22:37.696Z,14.17
2018-07-09T00:25:06.799Z,13.97
2018-07-09T00:27:36.116Z,14.20
2018-07-09T00:30:05.883Z,13.83
2018-07-09T00:32:35.020Z,14.30
2018-07-09T00:35:04.235Z,14.83
2018-07-09T00:37:33.443Z,14.43
2018-07-09T00:40:02.918Z,14.83
2018-07-09T00:42:32.200Z,16.30
2018-07-09T00:45:01.730Z,14.90
2018-07-09T00:47:31.006Z,14.40
2018-07-09T00:50:00.175Z,16.47
2018-07-09T00:52:29.467Z,17.40
2018-07-09T00:54:58.587Z,15.63
2018-07-09T00:57:27.896Z,16.20
2018-07-09T00:59:57.123Z,16.17
2018-07-09T01:02:26.271Z,15.53
2018-07-09T01:04:55.463Z,15.90
2018-07-09T01:07:24.805Z,15.70
2018-07-09T01:09:53.924Z,16.27
2018-07-09T01:12:23.084Z,18.07
2018-07-09T01:14:52.274Z,18.60
2018-07-09T01:17:21.624Z,18.73
2018-07-09T01:19:50.864Z,17.73
2018-07-09T01:22:20.028Z,18.87
2018-07-09T01:24:49.214Z,17.60
2018-07-09T01:27:18.446Z,16.47
2018-07-09T01:29:47.713Z,17.47
2018-07-09T01:32:16.895Z,18.20
2018-07-09T01:34:46.764Z,18.27
2018-07-09T01:37:15.913Z,20.10
2018-07-09T01:39:45.090Z,19.83
2018-07-09T01:42:14.232Z,19.20
2018-07-09T01:44:43.423Z,19.90
2018-07-09T01:47:12.506Z,19.23
2018-07-09T01:49:41.766Z,20.77
2018-07-09T01:52:10.859Z,20.07
2018-07-09T01:54:40.041Z,20.93
2018-07-09T01:57:09.131Z,19.17
2018-07-09T01:59:38.285Z,20.07
2018-07-09T02:02:08.063Z,19.43
2018-07-09T02:04:37.196Z,18.93
2018-07-09T02:07:06.432Z,19.57
2018-07-09T02:09:35.615Z,18.70
2018-07-09T02:12:04.766Z,19.87
2018-07-09T02:14:33.887Z,18.90
2018-07-09T02:17:03.060Z,18.57
2018-07-09T02:19:32.172Z,20.37
2018-07-09T02:22:01.304Z,19.57
2018-07-09T02:24:30.680Z,19.43
2018-07-09T02:26:59.937Z,19.90
2018-07-09T02:29:29.144Z,19.80
2018-07-09T02:31:58.273Z,19.77
2018-07-09T02:34:27.610Z,21.60
2018-07-09T02:36:56.747Z,19.60
2018-07-09T02:39:25.989Z,18.63
2018-07-09T02:41:55.355Z,19.10
2018-07-09T02:44:24.777Z,19.40
2018-07-09T02:46:53.954Z,19.13
2018-07-09T02:49:23.033Z,20.93
2018-07-09T02:51:53.390Z,20.70
2018-07-09T02:54:22.553Z,19.43
2018-07-09T02:56:51.808Z,20.27
2018-07-09T02:59:20.906Z,20.73
2018-07-09T03:01:50.107Z,21.70
2018-07-09T03:04:19.289Z,21.97
2018-07-09T03:06:48.419Z,21.93
2018-07-09T03:09:17.560Z,20.50
2018-07-09T03:11:46.717Z,20.83
2018-07-09T03:14:15.934Z,19.67
2018-07-09T03:16:45.121Z,21.20
2018-07-09T03:19:14.401Z,21.47
2018-07-09T03:21:43.571Z,21.47
2018-07-09T03:24:12.735Z,21.20
2018-07-09T03:26:41.898Z,21.10
2018-07-09T03:29:11.068Z,20.30
2018-07-09T03:31:40.258Z,18.93
2018-07-09T03:34:09.505Z,20.43
2018-07-09T03:36:38.644Z,20.80
2018-07-09T03:39:07.910Z,19.00
2018-07-09T03:41:37.140Z,20.83
2018-07-09T03:44:06.340Z,20.37
2018-07-09T03:46:35.826Z,20.97
2018-07-09T03:49:05.083Z,19.83
2018-07-09T03:51:34.304Z,20.67
2018-07-09T03:54:04.233Z,20.60
2018-07-09T03:56:33.384Z,21.40
2018-07-09T03:59:03.177Z,20.50
2018-07-09T04:01:32.380Z,21.40
2018-07-09T04:04:01.563Z,21.63
2018-07-09T04:06:30.697Z,21.70
2018-07-09T04:08:59.884Z,22.07
2018-07-09T04:11:31.436Z,22.40
2018-07-09T04:14:00.632Z,21.13
2018-07-09T04:16:29.880Z,20.70
2018-07-09T04:18:58.994Z,21.77
2018-07-09T04:21:28.309Z,21.60
2018-07-09T04:23:57.420Z,24.40
2018-07-09T04:26:26.530Z,22.70
2018-07-09T04:28:55.670Z,21.53
2018-07-09T04:31:24.820Z,21.80
2018-07-09T04:33:54.118Z,21.07
2018-07-09T04:36:23.003Z,19.57
2018-07-09T04:38:52.782Z,19.40
2018-07-09T04:41:22.043Z,17.57
2018-07-09T04:43:51.156Z,17.87
2018-07-09T04:46:20.355Z,18.27
2018-07-09T04:48:49.519Z,18.93
2018-07-09T04:51:18.858Z,18.70
2018-07-09T04:53:48.036Z,18.13
2018-07-09T04:56:17.139Z,18.57
2018-07-09T04:58:46.265Z,18.00
2018-07-09T05:01:15.529Z,16.50
2018-07-09T05:03:44.755Z,17.37
2018-07-09T05:06:13.988Z,17.03
2018-07-09T05:08:43.199Z,17.07
2018-07-09T05:11:12.353Z,16.47
2018-07-09T05:13:41.634Z,16.53
2018-07-09T05:16:10.794Z,15.80
2018-07-09T05:18:39.965Z,15.20
2018-07-09T05:21:09.228Z,15.53
2018-07-09T05:23:38.379Z,14.57
2018-07-09T05:26:07.535Z,14.57
2018-07-09T05:28:36.684Z,14.40
2018-07-09T05:31:05.917Z,14.30
2018-07-09T05:33:35.099Z,13.23
2018-07-09T05:36:04.264Z,12.27
2018-07-09T05:38:33.551Z,11.67
2018-07-09T05:41:02.684Z,11.63
2018-07-09T05:43:32.348Z,10.93
2018-07-09T05:46:01.513Z,11.57
2018-07-09T05:48:30.752Z,11.47
2018-07-09T05:50:59.990Z,11.07
2018-07-09T05:53:30.059Z,12.90
2018-07-09T05:55:59.159Z,12.20
2018-07-09T05:58:28.572Z,11.17
2018-07-09T06:00:57.761Z,12.57
2018-07-09T06:03:26.913Z,11.90
2018-07-09T06:05:56.106Z,11.57
2018-07-09T06:08:25.256Z,13.57
2018-07-09T06:10:54.416Z,13.83
2018-07-09T06:13:23.591Z,14.10
2018-07-09T06:15:52.745Z,13.50
2018-07-09T06:18:21.918Z,12.97
2018-07-09T06:20:51.080Z,14.77
2018-07-09T06:23:20.189Z,13.83
2018-07-09T06:25:49.243Z,11.97
2018-07-09T06:28:18.427Z,11.50
2018-07-09T06:30:47.648Z,10.50
2018-07-09T06:33:16.856Z,11.47
2018-07-09T06:35:46.021Z,11.13
2018-07-09T06:38:15.196Z,10.47
2018-07-09T06:40:44.387Z,9.63
2018-07-09T06:43:14.207Z,10.17
2018-07-09T06:45:44.105Z,9.60
2018-07-09T06:48:13.293Z,10.13
2018-07-09T06:50:42.515Z,10.03
2018-07-09T06:53:11.806Z,9.83
2018-07-09T06:55:41.064Z,9.60
2018-07-09T06:58:10.436Z,9.30
2018-07-09T07:00:39.640Z,9.20
2018-07-09T07:03:08.818Z,8.40
2018-07-09T07:05:38.031Z,8.03
2018-07-09T07:08:07.193Z,8.77
2018-07-09T07:10:36.434Z,7.23
2018-07-09T07:13:05.627Z,7.83
2018-07-09T07:15:34.811Z,6.90
2018-07-09T07:18:04.121Z,7.13
2018-07-09T07:20:33.296Z,7.40
2018-07-09T07:23:02.520Z,7.17
2018-07-09T07:25:31.686Z,7.37
2018-07-09T07:28:00.888Z,7.37
2018-07-09T07:30:30.284Z,6.70
2018-07-09T07:32:59.560Z,6.47
2018-07-09T07:35:29.172Z,5.67
2018-07-09T07:37:58.396Z,6.37
2018-07-09T07:40:27.650Z,6.00
2018-07-09T07:42:56.864Z,6.27
2018-07-09T07:45:26.153Z,5.57
2018-07-09T07:47:55.326Z,4.83
2018-07-09T07:50:24.509Z,4.10
2018-07-09T07:52:53.695Z,3.93
2018-07-09T07:55:22.920Z,4.97
2018-07-09T07:57:52.086Z,4.57
2018-07-09T08:00:21.369Z,4.40
2018-07-09T08:02:50.654Z,5.27
2018-07-09T08:05:19.841Z,5.10
2018-07-09T08:07:49.110Z,4.67
2018-07-09T08:10:18.349Z,4.57
2018-07-09T08:13:27.173Z,4.30
2018-07-09T08:15:16.701Z,4.57
2018-07-09T08:17:45.857Z,4.77
2018-07-09T08:20:15.028Z,4.73
2018-07-09T08:22:44.208Z,4.87
2018-07-09T08:25:13.445Z,4.50
2018-07-09T08:27:42.556Z,4.50
2018-07-09T08:30:11.999Z,5.27
2018-07-09T08:32:40.839Z,4.00
2018-07-09T08:35:09.574Z,4.47
2018-07-09T08:37:38.756Z,4.97
2018-07-09T08:40:08.013Z,4.60
2018-07-09T08:42:37.214Z,4.83
2018-07-09T08:45:06.399Z,4.87
2018-07-09T08:47:35.628Z,5.47
2018-07-09T08:50:04.922Z,4.97
2018-07-09T08:52:34.623Z,5.27
2018-07-09T08:55:03.905Z,5.90
2018-07-09T08:57:33.750Z,5.40
2018-07-09T09:00:02.888Z,4.90
2018-07-09T09:02:32.048Z,5.47
2018-07-09T09:05:01.280Z,5.00
2018-07-09T09:07:30.418Z,4.50
2018-07-09T09:09:59.673Z,5.33
2018-07-09T09:12:28.894Z,5.27
2018-07-09T09:14:58.093Z,5.10
2018-07-09T09:17:27.437Z,5.13
2018-07-09T09:19:56.705Z,4.60
2018-07-09T09:22:25.852Z,5.53
2018-07-09T09:24:55.043Z,5.90
2018-07-09T09:27:24.214Z,6.27
2018-07-09T09:29:53.445Z,6.07
2018-07-09T09:32:22.658Z,6.00
2018-07-09T09:34:51.905Z,6.47
2018-07-09T09:37:21.122Z,5.43
2018-07-09T09:39:51.080Z,5.83
2018-07-09T09:42:20.271Z,5.20
2018-07-09T09:44:49.501Z,4.73
2018-07-09T09:47:18.696Z,5.40
2018-07-09T09:49:48.399Z,5.03
2018-07-09T09:52:18.034Z,5.23
2018-07-09T09:54:47.656Z,3.37
2018-07-09T09:57:16.891Z,3.30
2018-07-09T09:59:46.105Z,3.57
2018-07-09T10:02:15.373Z,3.07
2018-07-09T10:04:44.546Z,2.87
2018-07-09T10:07:14.314Z,3.53
2018-07-09T10:09:43.561Z,3.50
2018-07-09T10:12:12.709Z,3.97
2018-07-09T10:14:41.880Z,4.37
2018-07-09T10:17:10.981Z,3.60
2018-07-09T10:19:40.226Z,3.73
2018-07-09T10:22:09.526Z,3.80
2018-07-09T10:24:38.668Z,3.70
2018-07-09T10:27:07.889Z,3.97
2018-07-09T10:29:37.109Z,3.30
2018-07-09T10:32:06.403Z,2.93
2018-07-09T10:34:35.589Z,2.60
2018-07-09T10:37:04.436Z,2.60
2018-07-09T10:39:33.500Z,2.63
2018-07-09T10:42:02.624Z,2.70
2018-07-09T10:44:31.805Z,3.10
2018-07-09T10:47:01.046Z,3.10
2018-07-09T10:49:30.180Z,3.20
2018-07-09T10:51:59.418Z,3.33
2018-07-09T10:54:28.635Z,3.63
2018-07-09T10:56:57.872Z,2.97
2018-07-09T10:59:27.367Z,3.13
2018-07-09T11:01:56.580Z,2.83
2018-07-09T11:04:25.777Z,2.60
2018-07-09T11:06:54.927Z,2.57
2018-07-09T11:09:24.068Z,2.90
2018-07-09T11:11:53.458Z,2.83
2018-07-09T11:14:22.766Z,2.87
2018-07-09T11:16:51.976Z,2.90
2018-07-09T11:19:21.512Z,2.83
2018-07-09T11:21:50.694Z,2.60
2018-07-09T11:24:20.928Z,2.70
2018-07-09T11:26:50.113Z,2.97
2018-07-09T11:29:19.298Z,2.20
2018-07-09T11:31:48.474Z,2.77
2018-07-09T11:34:17.651Z,2.50
2018-07-09T11:36:46.788Z,2.63
2018-07-09T11:39:16.099Z,2.57
2018-07-09T11:41:45.310Z,2.53
2018-07-09T11:44:14.473Z,2.60
2018-07-09T11:46:43.619Z,3.00
2018-07-09T11:49:12.985Z,2.67
2018-07-09T11:51:42.161Z,2.40
2018-07-09T11:54:11.315Z,2.40
2018-07-09T11:56:40.475Z,2.50
2018-07-09T11:59:09.765Z,3.50
2018-07-09T12:01:38.957Z,2.47
2018-07-09T12:04:08.211Z,2.77
2018-07-09T12:06:37.387Z,2.77
2018-07-09T12:09:06.652Z,2.60
2018-07-09T12:11:35.879Z,2.53
2018-07-09T12:14:05.069Z,2.70
2018-07-09T12:16:34.761Z,2.87
2018-07-09T12:19:03.937Z,2.70
2018-07-09T12:21:33.215Z,3.10
2018-07-09T12:24:02.322Z,2.83
2018-07-09T12:26:31.472Z,2.50
2018-07-09T12:29:00.781Z,2.73
2018-07-09T12:31:30.033Z,2.70
2018-07-09T12:33:59.169Z,2.97
2018-07-09T12:36:28.566Z,2.93
2018-07-09T12:38:57.671Z,3.30
2018-07-09T12:41:26.844Z,2.40
2018-07-09T12:43:56.081Z,2.80
2018-07-09T12:46:25.195Z,3.23
2018-07-09T12:48:54.375Z,2.80
2018-07-09T12:51:23.527Z,3.10
2018-07-09T12:53:52.700Z,2.53
2018-07-09T12:56:21.896Z,2.60
2018-07-09T12:58:51.060Z,2.47
2018-07-09T13:01:20.326Z,2.57
2018-07-09T13:03:49.459Z,2.60
2018-07-09T13:06:18.763Z,2.30
2018-07-09T13:08:48.500Z,2.37
2018-07-09T13:11:18.161Z,2.40
2018-07-09T13:13:47.366Z,2.00
2018-07-09T13:16:16.484Z,2.30
2018-07-09T13:18:45.658Z,2.40
2018-07-09T13:21:14.885Z,2.40
2018-07-09T13:23:44.024Z,2.57
2018-07-09T13:26:13.186Z,2.20
2018-07-09T13:28:42.351Z,3.00
2018-07-09T13:31:12.132Z,2.53
2018-07-09T13:33:41.367Z,2.47
2018-07-09T13:36:10.577Z,2.60
2018-07-09T13:38:40.065Z,2.53
2018-07-09T13:41:09.281Z,3.03
2018-07-09T13:43:38.452Z,2.80
2018-07-09T13:46:07.583Z,2.40
2018-07-09T13:48:37.794Z,2.30
2018-07-09T13:51:07.009Z,2.60
2018-07-09T13:53:36.204Z,2.53
2018-07-09T13:56:05.436Z,2.73
2018-07-09T13:58:34.905Z,2.70
2018-07-09T14:01:04.105Z,2.60
2018-07-09T14:03:33.256Z,2.63
2018-07-09T14:06:02.405Z,2.20
2018-07-09T14:08:31.542Z,2.43
2018-07-09T14:11:00.761Z,2.50
2018-07-09T14:13:30.000Z,2.67
2018-07-09T14:15:59.256Z,2.80
2018-07-09T14:18:28.546Z,2.90
2018-07-09T14:20:57.740Z,2.77
2018-07-09T14:23:26.877Z,2.67
2018-07-09T14:25:56.055Z,2.87
2018-07-09T14:28:25.234Z,2.10
2018-07-09T14:30:54.417Z,2.00
2018-07-09T14:33:23.607Z,1.80
2018-07-09T14:35:52.791Z,2.27
2018-07-09T14:38:21.984Z,2.10
2018-07-09T14:40:50.921Z,2.33
2018-07-09T14:43:20.075Z,2.00
2018-07-09T14:45:49.268Z,2.33
2018-07-09T14:48:18.453Z,2.70
2018-07-09T14:50:48.132Z,2.33
2018-07-09T14:53:17.237Z,2.30
2018-07-09T14:55:46.538Z,2.40
2018-07-09T14:58:15.699Z,2.53
2018-07-09T15:00:44.835Z,2.30
2018-07-09T15:03:14.011Z,2.40
2018-07-09T15:05:43.169Z,2.00
2018-07-09T15:08:12.405Z,2.30
2018-07-09T15:10:41.610Z,1.87
2018-07-09T15:13:10.753Z,2.10
2018-07-09T15:15:39.999Z,2.10
2018-07-09T15:18:09.163Z,1.80
2018-07-09T15:20:38.334Z,2.20
2018-07-09T15:23:07.575Z,2.10
2018-07-09T15:25:36.769Z,2.30
2018-07-09T15:28:05.932Z,2.03
2018-07-09T15:30:35.248Z,2.07
2018-07-09T15:33:04.356Z,2.37
2018-07-09T15:35:34.059Z,2.40
2018-07-09T15:38:03.272Z,2.43
2018-07-09T15:40:32.578Z,2.40
2018-07-09T15:43:01.708Z,2.30
2018-07-09T15:45:30.909Z,2.37
2018-07-09T15:48:00.044Z,2.50
2018-07-09T15:50:29.370Z,2.30
2018-07-09T15:52:58.576Z,2.57
2018-07-09T15:55:27.930Z,2.20
2018-07-09T15:57:57.093Z,2.07
2018-07-09T16:00:26.363Z,2.73
2018-07-09T16:02:55.545Z,2.10
2018-07-09T16:05:24.449Z,2.43
2018-07-09T16:07:53.664Z,2.77
2018-07-09T16:10:22.797Z,3.00
2018-07-09T16:12:52.120Z,2.70
2018-07-09T16:15:21.908Z,3.03
2018-07-09T16:17:51.638Z,2.70
2018-07-09T16:20:20.963Z,2.53
2018-07-09T16:22:50.073Z,2.60
2018-07-09T16:25:19.374Z,2.60
2018-07-09T16:27:48.505Z,2.50
2018-07-09T16:30:17.648Z,2.60
2018-07-09T16:32:46.483Z,2.53
2018-07-09T16:35:15.530Z,2.77
2018-07-09T16:37:44.365Z,3.00
2018-07-09T16:40:13.490Z,2.67
2018-07-09T16:42:42.633Z,2.70
2018-07-09T16:45:11.821Z,2.33
2018-07-09T16:47:40.989Z,2.20
2018-07-09T16:50:10.433Z,2.17
2018-07-09T16:52:39.715Z,2.40
2018-07-09T16:55:08.891Z,2.70
2018-07-09T16:57:38.053Z,2.47
2018-07-09T17:00:07.270Z,2.30
2018-07-09T17:02:36.456Z,2.23
2018-07-09T17:05:05.824Z,2.10
2018-07-09T17:07:35.003Z,2.10
2018-07-09T17:10:03.831Z,2.17
2018-07-09T17:12:32.918Z,2.03
2018-07-09T17:15:02.124Z,2.07
2018-07-09T17:17:31.314Z,2.17
2018-07-09T17:20:00.511Z,2.17
2018-07-09T17:22:29.777Z,2.00
2018-07-09T17:24:58.923Z,2.07
2018-07-09T17:27:28.136Z,2.13
2018-07-09T17:29:57.296Z,1.87
2018-07-09T17:32:26.611Z,2.70
2018-07-09T17:34:55.765Z,2.43
2018-07-09T17:37:25.104Z,2.37
2018-07-09T17:39:54.247Z,2.27
2018-07-09T17:42:23.431Z,2.30
2018-07-09T17:44:53.756Z,2.43
2018-07-09T17:47:22.958Z,2.53
2018-07-09T17:49:52.323Z,2.73
2018-07-09T17:52:21.483Z,2.30
2018-07-09T17:54:50.648Z,2.40
2018-07-09T17:57:19.929Z,2.30
2018-07-09T17:59:49.084Z,2.33
2018-07-09T18:02:18.259Z,2.33
2018-07-09T18:04:48.085Z,2.00
2018-07-09T18:07:17.285Z,2.10
2018-07-09T18:09:46.996Z,2.17
2018-07-09T18:12:16.153Z,1.87
2018-07-09T18:14:45.330Z,2.00
2018-07-09T18:17:14.629Z,2.47
2018-07-09T18:19:43.838Z,1.87
2018-07-09T18:22:13.875Z,2.30
2018-07-09T18:24:43.124Z,2.30
2018-07-09T18:27:12.387Z,2.07
2018-07-09T18:29:41.585Z,2.00
2018-07-09T18:32:10.852Z,2.50
2018-07-09T18:34:39.997Z,2.50
2018-07-09T18:37:09.221Z,2.40
2018-07-09T18:39:38.072Z,2.40
2018-07-09T18:42:07.135Z,2.07
2018-07-09T18:44:35.936Z,2.07
2018-07-09T18:47:05.164Z,2.30
2018-07-09T18:49:34.362Z,2.20
2018-07-09T18:52:03.592Z,2.23
2018-07-09T18:54:33.427Z,2.07
2018-07-09T18:57:02.652Z,2.40
2018-07-09T18:59:31.824Z,2.40
2018-07-09T19:02:00.969Z,2.43
2018-07-09T19:04:30.253Z,2.30
2018-07-09T19:07:06.256Z,2.47
2018-07-09T19:09:35.996Z,2.00
2018-07-09T19:12:06.392Z,2.20
2018-07-09T19:14:38.532Z,1.97
2018-07-09T19:18:26.722Z,1.93
2018-07-09T19:21:36.784Z,2.10
2018-07-09T19:24:05.965Z,2.27
2018-07-09T19:26:34.263Z,2.50
2018-07-09T19:29:02.277Z,2.73
2018-07-09T19:31:30.236Z,2.80
2018-07-09T19:33:58.239Z,3.07
2018-07-09T19:36:26.280Z,3.10
2018-07-09T19:38:54.217Z,3.03
2018-07-09T19:41:22.185Z,3.13
2018-07-09T19:43:50.360Z,2.83
2018-07-09T19:46:18.403Z,2.83
2018-07-09T19:48:46.379Z,2.90
2018-07-09T19:51:14.403Z,3.10
2018-07-09T19:53:42.373Z,2.13
2018-07-09T19:56:10.374Z,2.20
2018-07-09T19:58:38.349Z,1.90
2018-07-09T20:01:06.333Z,2.20
2018-07-09T20:03:34.323Z,2.20
2018-07-09T20:06:02.326Z,2.80
2018-07-09T20:08:35.530Z,2.63
2018-07-09T20:11:08.926Z,3.00
2018-07-09T20:14:09.532Z,2.53
2018-07-09T20:16:42.718Z,2.37
2018-07-09T20:19:10.969Z,2.00
2018-07-09T20:21:38.909Z,2.40
2018-07-09T20:24:06.878Z,2.40
2018-07-09T20:26:34.849Z,2.60
2018-07-09T20:29:03.450Z,2.10
2018-07-09T20:31:31.524Z,2.37
2018-07-09T20:33:59.512Z,2.30
2018-07-09T20:36:27.535Z,2.20
2018-07-09T20:38:55.528Z,2.17
2018-07-09T20:41:23.568Z,2.37
2018-07-09T20:43:51.532Z,2.07
2018-07-09T20:46:19.504Z,2.50
2018-07-09T20:48:47.476Z,3.03
2018-07-09T20:51:15.563Z,3.40
2018-07-09T20:53:43.535Z,3.30
2018-07-09T20:56:11.525Z,3.17
2018-07-09T20:58:39.623Z,3.17
2018-07-09T21:01:07.564Z,2.90
2018-07-09T21:03:35.531Z,2.97
2018-07-09T21:06:03.517Z,2.80
2018-07-09T21:08:31.506Z,3.20
2018-07-09T21:10:59.605Z,3.33
2018-07-09T21:13:30.843Z,3.30
2018-07-09T21:15:59.023Z,3.73
2018-07-09T21:18:27.286Z,3.40
2018-07-09T21:20:55.227Z,3.90
2018-07-09T21:23:23.185Z,3.60
2018-07-09T21:25:51.172Z,3.70
2018-07-09T21:28:19.263Z,4.10
2018-07-09T21:30:47.240Z,4.13
2018-07-09T21:33:15.196Z,3.30
2018-07-09T21:35:43.158Z,3.80
2018-07-09T21:38:11.164Z,3.57
2018-07-09T21:40:39.120Z,3.60
2018-07-09T21:43:07.072Z,2.90
2018-07-09T21:45:35.060Z,2.50
2018-07-09T21:48:10.565Z,2.70
2018-07-09T21:50:30.995Z,2.30
2018-07-09T21:52:59.012Z,2.57
2018-07-09T21:55:27.034Z,2.30
2018-07-09T21:57:54.992Z,2.10
2018-07-09T22:00:22.955Z,1.80
2018-07-09T22:02:50.907Z,2.00
2018-07-09T22:05:18.996Z,2.20
2018-07-09T22:07:46.947Z,2.30
2018-07-09T22:10:14.910Z,2.40
2018-07-09T22:12:42.948Z,2.10
2018-07-09T22:15:10.897Z,2.00
2018-07-09T22:17:39.271Z,2.13
2018-07-09T22:20:07.568Z,2.27
2018-07-09T22:22:35.563Z,2.27
2018-07-09T22:25:03.991Z,2.10
2018-07-09T22:27:32.500Z,2.27
2018-07-09T22:30:00.611Z,2.20
2018-07-09T22:32:29.824Z,2.27
2018-07-09T22:34:58.966Z,2.57
2018-07-09T22:37:28.262Z,1.80
2018-07-09T22:39:57.419Z,2.10
2018-07-09T22:42:26.531Z,2.07
2018-07-09T22:44:55.677Z,2.40
2018-07-09T22:47:24.918Z,2.47
2018-07-09T22:49:54.099Z,1.80
2018-07-09T22:52:23.204Z,2.00
2018-07-09T22:55:03.678Z,2.30
2018-07-09T22:57:32.793Z,2.07
2018-07-09T23:00:01.952Z,2.50
2018-07-09T23:02:31.102Z,1.77
2018-07-09T23:05:00.183Z,2.17
2018-07-09T23:07:29.361Z,2.20
2018-07-09T23:10:09.876Z,2.80
2018-07-09T23:13:11.022Z,2.70
2018-07-09T23:15:53.820Z,2.80
2018-07-09T23:18:34.895Z,2.70
2018-07-09T23:21:41.716Z,2.70
2018-07-09T23:24:09.712Z,3.00
2018-07-09T23:26:38.117Z,2.67
2018-07-09T23:29:06.135Z,2.93
2018-07-09T23:31:34.114Z,3.13
2018-07-09T23:34:02.165Z,3.10
2018-07-09T23:36:30.137Z,3.07
2018-07-09T23:38:58.111Z,2.37
2018-07-09T23:41:26.066Z,2.40
2018-07-09T23:43:54.036Z,2.80
2018-07-09T23:46:22.009Z,2.50
2018-07-09T23:48:49.978Z,3.10
2018-07-09T23:51:17.924Z,3.23
2018-07-09T23:53:45.898Z,2.80
2018-07-09T23:56:20.669Z,2.80
2018-07-09T23:59:15.627Z,3.20
